Weather observations for the past three days for
Hastings, Hastings Municipal Airport
Imperial (Metric)
Date Time (cdt) Wind (mph) Vis. (mi.) Weather Sky Cond. Temperature (ºF) Relative Humidity Wind Chill (°F) Heat Index (°F) Pressure Precipitation (in)
Air Dwpt 6 hour altimeter (in) sea level (mb) 1 hr 3 hr 6 hr
Max. Min.
06 14:53 Vrbl 6 10.00 Partly Cloudy SCT110 86 68 55% 89 30 1013.8
06 13:53 E 8 10.00 A Few Clouds FEW110 84 64.9 53% 86 30.01 1014.1
06 12:53 Vrbl 5 10.00 Fair CLR 82 64.9 82 71.1 56% 84 30.01 1014.1 0.02
06 11:53 Vrbl 6 10.00 Fair CLR 77 64 64% 79 29.99 1013.7 0.01
06 10:53 S 9 G 23 10.00 Mostly Cloudy SCT033 SCT050 BKN080 75 60.1 60% 77 29.99 1013.5
06 09:53 SW 10 G 21 10.00 Light Rain SCT100 BKN120 73 64 74% 30.02 1014.5 0.01 0.01
06 08:53 W 9 10.00 Partly Cloudy FEW060 SCT090 SCT110 72 66 82% 30.06 1016.1
06 07:53 NW 9 10.00 Fair CLR 71.1 66 84% 30.05 1015.7
06 06:53 NW 16 10.00 Mostly Cloudy BKN085 BKN110 75 66 80.1 73.9 74% 76 30.05 1015.6
06 05:53 Calm 10.00 Partly Cloudy SCT080 75 66.9 76% 76 30.01 1014.0
06 04:53 SE 7 10.00 Fair CLR 75.9 66 72% 77 29.98 1012.9
06 03:53 SE 7 10.00 Fair CLR 77 66.9 71% 79 29.97 1012.5
06 01:53 SE 8 10.00 Fair CLR 78.1 68 71% 80 29.97 1012.7
06 00:53 SE 9 10.00 Fair CLR 80.1 68 91 80.1 67% 83 29.97 1012.7
05 23:53 SE 7 10.00 Fair CLR 82 69.1 65% 85 29.97 1012.8
05 22:53 SE 8 10.00 Fair CLR 82 70 67% 86 29.97 1012.7
05 21:53 SE 8 10.00 Fair CLR 84 71.1 65% 89 29.96 1012.3
05 20:53 SE 7 10.00 Fair CLR 86 71.1 61% 92 29.93 1011.3
05 19:53 E 6 10.00 Fair CLR 87.1 71.1 59% 93 29.92 1010.9
05 18:53 SE 7 10.00 Fair CLR 91 71.1 93 87.1 52% 98 29.91 1010.7
05 17:53 SE 12 10.00 Fair CLR 91.9 71.1 51% 99 29.91 1010.6
05 16:53 SE 12 10.00 Fair CLR 93 71.1 49% 100 29.93 1011.1
05 15:53 E 13 G 26 10.00 Fair CLR 91.9 71.1 51% 99 29.95 1011.9
05 12:53 E 12 10.00 Fair CLR 87.1 72 87.1 70 61% 94 30.01 1014.0
05 11:53 E 8 10.00 Fair CLR 82.9 71.1 67% 88 30.02 1014.4
05 10:53 Calm 10.00 Fair CLR 81 69.1 67% 84 29.99 1013.5
05 09:53 S 6 10.00 Fair CLR 79 69.1 72% 82 29.97 1012.9
05 08:53 Calm 10.00 Fair CLR 77 68 74% 79 29.96 1012.4
05 07:53 S 3 10.00 Fair CLR 73.9 66.9 79% 29.94 1011.8
05 06:53 Calm 10.00 Fair CLR 70 66 79 70 87% 29.93 1011.4
05 05:53 S 5 10.00 Fair CLR 73 66.9 81% 29.91 1010.7
05 04:53 S 8 10.00 Fair CLR 75 66.9 76% 76 29.91 1010.6
05 03:53 S 7 10.00 Fair CLR 75.9 66.9 74% 77 29.93 1011.3
05 02:53 S 6 10.00 Fair CLR 77 66.9 71% 79 29.94 1011.6
05 01:53 S 7 10.00 Fair CLR 78.1 66.9 69% 80 29.94 1011.6
05 00:53 SE 7 10.00 Fair CLR 79 68 90 79 69% 81 29.94 1011.5
04 23:53 SE 5 10.00 Fair CLR 79 68 69% 81 29.94 1011.5
04 22:53 SE 6 10.00 Fair CLR 82 69.1 65% 85 29.93 1011.4
04 21:53 SE 7 10.00 Fair CLR 82.9 70 65% 87 29.92 1010.9
04 20:53 SE 7 10.00 Fair CLR 84 73 70% 90 29.9 1010.3
04 19:53 SE 7 10.00 Fair CLR 89.1 73.9 61% 98 29.9 1010.3
04 18:53 SE 9 10.00 Fair CLR 90 73 93.9 89.1 58% 98 29.89 1010.0
04 17:53 SE 9 G 21 10.00 Fair CLR 91.9 72 52% 100 29.89 1009.9
04 16:53 SE 9 G 21 10.00 A Few Clouds FEW120 93.9 73 51% 103 29.88 1009.7
04 15:53 SE 7 10.00 Mostly Cloudy FEW070 SCT090 BKN110 89.1 72 57% 96 29.9 1010.3
04 14:53 SE 8 9.00 Mostly Cloudy BKN110 89.1 72 57% 96 29.9 1010.4
04 13:53 S 6 10.00 Fair CLR 91 71.1 52% 98 29.93 1011.2
04 12:53 Vrbl 5 10.00 Fair CLR 90 71.1 90 73 54% 96 29.94 1011.5
04 11:53 SW 5 10.00 Fair CLR 88 70 55% 93 29.94 1011.5
04 10:53 S 7 10.00 Fair CLR 84 70 63% 88 29.93 1011.5
04 09:53 S 9 10.00 Fair CLR 81 69.1 67% 84 29.93 1011.4
04 08:53 S 8 10.00 Fair CLR 77 69.1 77% 79 29.92 1011.3
04 07:53 S 6 10.00 A Few Clouds FEW110 73 66.9 81% 29.91 1010.9
04 06:53 S 7 10.00 Fair CLR 73 66.9 77 73 81% 29.9 1010.1
04 05:53 S 6 10.00 Fair CLR 75 66.9 76% 76 29.89 1009.8
04 04:53 S 7 10.00 Fair CLR 75.9 66 72% 77 29.89 1009.6
04 03:53 S 5 10.00 Fair CLR 77 66 69% 79 29.88 1009.3
04 02:53 S 8 10.00 Fair CLR 77 64.9 66% 79 29.87 1009.2
04 01:53 S 7 10.00 Fair CLR 75 66 74% 76 29.87 1009.3
04 00:53 S 5 10.00 Fair CLR 77 66 96.1 77 69% 79 29.86 1008.7
03 23:53 S 7 10.00 Fair CLR 80.1 66 62% 82 29.84 1008.2
03 22:53 Calm 10.00 Fair CLR 77 70 79% 79 29.84 1008.3
03 21:53 N 5 10.00 Fair CLR 79 71.1 77% 82 29.83 1007.8
03 20:53 NE 6 10.00 Fair CLR 80.1 72 76% 84 29.81 1007.5
03 19:53 N 6 10.00 Fair CLR 87.1 73.9 65% 95 29.79 1006.5
03 18:53 SW 3 10.00 Fair CLR 96.1 66 97 90 37% 100 29.78 1006.0
03 17:53 S 7 10.00 Fair CLR 96.1 66 37% 100 29.77 1005.7
03 16:53 S 7 10.00 Fair CLR 97 64.9 35% 100 29.78 1005.8
03 15:53 S 10 10.00 Fair CLR 96.1 66 37% 100 29.79 1006.3
Date Time (cdt) Wind (mph) Vis. (mi.) Weather Sky Cond. Air Dwpt Max. Min. Relative Humidity Wind Chill (°F) Heat Index (°F) altimeter (in) sea level (mb) 1 hr 3 hr 6 hr
6 hour
Temperature (ºF) Pressure Precipitation (in)